sensor_id;sensor_type;location;lat;lon;timestamp;temperature;humidity
66053;HTU21D;52833;45.112;39.556;2022-08-04T00:00:16;22.41;76.28
66053;HTU21D;52833;45.112;39.556;2022-08-04T00:05:35;22.31;76.35
66053;HTU21D;52833;45.112;39.556;2022-08-04T00:10:43;22.21;76.57
66053;HTU21D;52833;45.112;39.556;2022-08-04T00:13:16;22.16;76.75
66053;HTU21D;52833;45.112;39.556;2022-08-04T00:15:51;22.10;76.88
66053;HTU21D;52833;45.112;39.556;2022-08-04T00:18:22;22.06;76.85
66053;HTU21D;52833;45.112;39.556;2022-08-04T00:20:59;22.01;76.92
66053;HTU21D;52833;45.112;39.556;2022-08-04T00:23:33;21.95;76.98
66053;HTU21D;52833;45.112;39.556;2022-08-04T00:26:01;21.90;76.75
66053;HTU21D;52833;45.112;39.556;2022-08-04T00:28:28;21.85;76.66
66053;HTU21D;52833;45.112;39.556;2022-08-04T00:30:55;21.81;76.87
66053;HTU21D;52833;45.112;39.556;2022-08-04T00:33:22;21.78;77.06
66053;HTU21D;52833;45.112;39.556;2022-08-04T00:35:50;21.74;77.26
66053;HTU21D;52833;45.112;39.556;2022-08-04T00:38:17;21.70;77.49
66053;HTU21D;52833;45.112;39.556;2022-08-04T00:41:08;21.65;77.74
66053;HTU21D;52833;45.112;39.556;2022-08-04T00:44:05;21.61;77.72
66053;HTU21D;52833;45.112;39.556;2022-08-04T00:49:33;21.51;77.82
66053;HTU21D;52833;45.112;39.556;2022-08-04T01:01:40;21.32;78.31
66053;HTU21D;52833;45.112;39.556;2022-08-04T01:04:16;21.29;78.37
66053;HTU21D;52833;45.112;39.556;2022-08-04T01:07:14;21.22;78.43
66053;HTU21D;52833;45.112;39.556;2022-08-04T01:09:54;21.19;78.45
66053;HTU21D;52833;45.112;39.556;2022-08-04T01:12:35;21.15;78.59
66053;HTU21D;52833;45.112;39.556;2022-08-04T01:15:14;21.10;78.62
66053;HTU21D;52833;45.112;39.556;2022-08-04T01:18:04;21.07;78.77
66053;HTU21D;52833;45.112;39.556;2022-08-04T01:20:40;21.03;78.83
66053;HTU21D;52833;45.112;39.556;2022-08-04T01:26:51;20.96;79.01
66053;HTU21D;52833;45.112;39.556;2022-08-04T01:29:18;20.92;79.01
66053;HTU21D;52833;45.112;39.556;2022-08-04T01:32:02;20.89;79.08
66053;HTU21D;52833;45.112;39.556;2022-08-04T01:34:34;20.87;79.11
66053;HTU21D;52833;45.112;39.556;2022-08-04T01:37:10;20.83;79.25
66053;HTU21D;52833;45.112;39.556;2022-08-04T01:40:04;20.81;79.40
66053;HTU21D;52833;45.112;39.556;2022-08-04T01:42:34;20.78;79.37
66053;HTU21D;52833;45.112;39.556;2022-08-04T01:45:06;20.77;79.58
66053;HTU21D;52833;45.112;39.556;2022-08-04T01:47:36;20.73;79.66
66053;HTU21D;52833;45.112;39.556;2022-08-04T01:50:08;20.71;79.76
66053;HTU21D;52833;45.112;39.556;2022-08-04T01:52:38;20.68;79.81
66053;HTU21D;52833;45.112;39.556;2022-08-04T01:55:08;20.64;79.86
66053;HTU21D;52833;45.112;39.556;2022-08-04T01:57:44;20.63;79.97
66053;HTU21D;52833;45.112;39.556;2022-08-04T02:00:16;20.60;80.00
66053;HTU21D;52833;45.112;39.556;2022-08-04T02:02:44;20.58;80.05
66053;HTU21D;52833;45.112;39.556;2022-08-04T02:05:16;20.55;80.14
66053;HTU21D;52833;45.112;39.556;2022-08-04T02:11:03;20.49;80.24
66053;HTU21D;52833;45.112;39.556;2022-08-04T02:16:47;20.44;80.19
66053;HTU21D;52833;45.112;39.556;2022-08-04T02:19:34;20.43;80.37
66053;HTU21D;52833;45.112;39.556;2022-08-04T02:22:09;20.42;80.42
66053;HTU21D;52833;45.112;39.556;2022-08-04T02:24:54;20.41;80.48
66053;HTU21D;52833;45.112;39.556;2022-08-04T02:27:29;20.42;80.64
66053;HTU21D;52833;45.112;39.556;2022-08-04T02:30:04;20.46;80.91
66053;HTU21D;52833;45.112;39.556;2022-08-04T02:32:35;20.50;81.13
66053;HTU21D;52833;45.112;39.556;2022-08-04T02:35:11;20.58;81.33
66053;HTU21D;52833;45.112;39.556;2022-08-04T02:37:46;20.66;81.60
66053;HTU21D;52833;45.112;39.556;2022-08-04T02:40:19;20.79;81.80
66053;HTU21D;52833;45.112;39.556;2022-08-04T02:42:49;20.94;81.91
66053;HTU21D;52833;45.112;39.556;2022-08-04T02:45:18;21.10;82.00
66053;HTU21D;52833;45.112;39.556;2022-08-04T02:47:47;21.28;82.01
66053;HTU21D;52833;45.112;39.556;2022-08-04T02:50:17;21.47;81.94
66053;HTU21D;52833;45.112;39.556;2022-08-04T02:52:46;21.66;81.87
66053;HTU21D;52833;45.112;39.556;2022-08-04T02:55:16;21.85;81.71
66053;HTU21D;52833;45.112;39.556;2022-08-04T02:57:44;22.09;81.53
66053;HTU21D;52833;45.112;39.556;2022-08-04T03:00:13;22.35;81.23
66053;HTU21D;52833;45.112;39.556;2022-08-04T03:16:43;23.62;78.09
66053;HTU21D;52833;45.112;39.556;2022-08-04T03:30:27;25.75;74.22
66053;HTU21D;52833;45.112;39.556;2022-08-04T03:33:23;26.18;73.48
66053;HTU21D;52833;45.112;39.556;2022-08-04T03:39:44;26.91;72.39
66053;HTU21D;52833;45.112;39.556;2022-08-04T03:51:11;27.63;72.06
66053;HTU21D;52833;45.112;39.556;2022-08-04T03:56:55;27.87;71.89
66053;HTU21D;52833;45.112;39.556;2022-08-04T04:08:09;28.32;71.25
66053;HTU21D;52833;45.112;39.556;2022-08-04T04:16:37;28.59;70.48
66053;HTU21D;52833;45.112;39.556;2022-08-04T04:24:48;28.64;69.76
66053;HTU21D;52833;45.112;39.556;2022-08-04T04:38:27;28.88;67.77
66053;HTU21D;52833;45.112;39.556;2022-08-04T04:44:41;28.99;67.20
66053;HTU21D;52833;45.112;39.556;2022-08-04T04:55:01;28.98;66.13
66053;HTU21D;52833;45.112;39.556;2022-08-04T04:57:34;28.97;66.20
66053;HTU21D;52833;45.112;39.556;2022-08-04T05:00:08;28.99;66.14
66053;HTU21D;52833;45.112;39.556;2022-08-04T05:05:38;28.98;65.84
66053;HTU21D;52833;45.112;39.556;2022-08-04T05:16:50;29.01;66.19
66053;HTU21D;52833;45.112;39.556;2022-08-04T05:22:10;29.22;65.89
66053;HTU21D;52833;45.112;39.556;2022-08-04T05:24:42;29.31;65.68
66053;HTU21D;52833;45.112;39.556;2022-08-04T05:27:16;29.39;65.58
66053;HTU21D;52833;45.112;39.556;2022-08-04T05:29:59;29.47;65.45
66053;HTU21D;52833;45.112;39.556;2022-08-04T05:35:44;29.62;65.36
66053;HTU21D;52833;45.112;39.556;2022-08-04T05:38:16;29.81;65.31
66053;HTU21D;52833;45.112;39.556;2022-08-04T05:40:44;30.03;65.06
66053;HTU21D;52833;45.112;39.556;2022-08-04T05:43:13;30.24;64.57
66053;HTU21D;52833;45.112;39.556;2022-08-04T05:45:41;30.40;64.25
66053;HTU21D;52833;45.112;39.556;2022-08-04T05:48:10;30.60;63.98
66053;HTU21D;52833;45.112;39.556;2022-08-04T05:50:38;30.81;63.68
66053;HTU21D;52833;45.112;39.556;2022-08-04T05:53:05;30.99;63.09
66053;HTU21D;52833;45.112;39.556;2022-08-04T05:55:33;31.14;62.75
66053;HTU21D;52833;45.112;39.556;2022-08-04T05:58:03;31.30;62.36
66053;HTU21D;52833;45.112;39.556;2022-08-04T06:00:32;31.48;62.20
66053;HTU21D;52833;45.112;39.556;2022-08-04T06:03:01;31.63;61.70
66053;HTU21D;52833;45.112;39.556;2022-08-04T06:05:29;31.74;61.38
66053;HTU21D;52833;45.112;39.556;2022-08-04T06:07:56;31.80;60.87
66053;HTU21D;52833;45.112;39.556;2022-08-04T06:10:24;31.83;60.85
66053;HTU21D;52833;45.112;39.556;2022-08-04T06:12:54;31.89;60.50
66053;HTU21D;52833;45.112;39.556;2022-08-04T06:15:23;31.95;60.49
66053;HTU21D;52833;45.112;39.556;2022-08-04T06:18:02;32.04;60.26
66053;HTU21D;52833;45.112;39.556;2022-08-04T06:20:33;32.18;59.99
66053;HTU21D;52833;45.112;39.556;2022-08-04T06:23:07;32.31;59.73
66053;HTU21D;52833;45.112;39.556;2022-08-04T06:25:45;32.46;59.35
66053;HTU21D;52833;45.112;39.556;2022-08-04T06:28:13;32.55;59.01
66053;HTU21D;52833;45.112;39.556;2022-08-04T06:30:41;32.62;58.87
66053;HTU21D;52833;45.112;39.556;2022-08-04T06:33:14;32.74;58.54
66053;HTU21D;52833;45.112;39.556;2022-08-04T06:36:01;32.83;58.35
66053;HTU21D;52833;45.112;39.556;2022-08-04T06:38:30;32.91;58.10
66053;HTU21D;52833;45.112;39.556;2022-08-04T06:40:58;33.02;57.62
66053;HTU21D;52833;45.112;39.556;2022-08-04T06:43:32;33.08;57.30
66053;HTU21D;52833;45.112;39.556;2022-08-04T06:45:59;33.17;57.16
66053;HTU21D;52833;45.112;39.556;2022-08-04T06:48:29;33.30;56.86
66053;HTU21D;52833;45.112;39.556;2022-08-04T06:50:57;33.38;56.57
66053;HTU21D;52833;45.112;39.556;2022-08-04T06:53:25;33.50;56.36
66053;HTU21D;52833;45.112;39.556;2022-08-04T06:55:53;33.65;56.07
66053;HTU21D;52833;45.112;39.556;2022-08-04T06:58:21;33.74;55.63
66053;HTU21D;52833;45.112;39.556;2022-08-04T07:00:48;33.75;55.52
66053;HTU21D;52833;45.112;39.556;2022-08-04T07:03:17;33.82;55.37
66053;HTU21D;52833;45.112;39.556;2022-08-04T07:05:48;33.91;55.04
66053;HTU21D;52833;45.112;39.556;2022-08-04T07:08:16;34.02;54.62
66053;HTU21D;52833;45.112;39.556;2022-08-04T07:10:44;34.07;54.49
66053;HTU21D;52833;45.112;39.556;2022-08-04T07:13:13;34.12;54.28
66053;HTU21D;52833;45.112;39.556;2022-08-04T07:15:48;34.15;54.10
66053;HTU21D;52833;45.112;39.556;2022-08-04T07:18:16;34.22;53.87
66053;HTU21D;52833;45.112;39.556;2022-08-04T07:20:44;34.27;53.05
66053;HTU21D;52833;45.112;39.556;2022-08-04T07:23:15;34.29;53.01
66053;HTU21D;52833;45.112;39.556;2022-08-04T07:25:54;34.35;52.74
66053;HTU21D;52833;45.112;39.556;2022-08-04T07:28:27;34.39;52.39
66053;HTU21D;52833;45.112;39.556;2022-08-04T07:30:54;34.39;52.91
66053;HTU21D;52833;45.112;39.556;2022-08-04T07:33:22;34.51;52.78
66053;HTU21D;52833;45.112;39.556;2022-08-04T07:35:52;34.61;52.20
66053;HTU21D;52833;45.112;39.556;2022-08-04T07:38:21;34.71;51.33
66053;HTU21D;52833;45.112;39.556;2022-08-04T07:40:48;34.76;50.82
66053;HTU21D;52833;45.112;39.556;2022-08-04T07:43:16;34.85;51.00
66053;HTU21D;52833;45.112;39.556;2022-08-04T07:45:43;35.00;50.78
66053;HTU21D;52833;45.112;39.556;2022-08-04T07:48:09;35.14;50.52
66053;HTU21D;52833;45.112;39.556;2022-08-04T07:50:37;35.29;50.17
66053;HTU21D;52833;45.112;39.556;2022-08-04T07:53:08;35.40;49.86
66053;HTU21D;52833;45.112;39.556;2022-08-04T07:55:36;35.50;49.45
66053;HTU21D;52833;45.112;39.556;2022-08-04T07:58:03;35.59;48.93
66053;HTU21D;52833;45.112;39.556;2022-08-04T08:00:30;35.65;48.49
66053;HTU21D;52833;45.112;39.556;2022-08-04T08:02:58;35.72;48.28
66053;HTU21D;52833;45.112;39.556;2022-08-04T08:05:26;35.82;48.15
66053;HTU21D;52833;45.112;39.556;2022-08-04T08:07:53;35.86;47.77
66053;HTU21D;52833;45.112;39.556;2022-08-04T08:10:23;35.84;47.82
66053;HTU21D;52833;45.112;39.556;2022-08-04T08:12:51;35.87;47.92
66053;HTU21D;52833;45.112;39.556;2022-08-04T08:15:20;35.90;47.89
66053;HTU21D;52833;45.112;39.556;2022-08-04T08:17:46;35.99;47.96
66053;HTU21D;52833;45.112;39.556;2022-08-04T08:20:13;36.13;47.71
66053;HTU21D;52833;45.112;39.556;2022-08-04T08:22:40;36.28;47.17
66053;HTU21D;52833;45.112;39.556;2022-08-04T08:25:07;36.30;46.84
66053;HTU21D;52833;45.112;39.556;2022-08-04T08:27:36;36.33;46.24
66053;HTU21D;52833;45.112;39.556;2022-08-04T08:30:05;36.36;45.93
66053;HTU21D;52833;45.112;39.556;2022-08-04T08:32:31;36.37;45.49
66053;HTU21D;52833;45.112;39.556;2022-08-04T08:34:58;36.37;45.36
66053;HTU21D;52833;45.112;39.556;2022-08-04T08:37:44;36.42;45.09
66053;HTU21D;52833;45.112;39.556;2022-08-04T08:40:34;36.51;44.61
66053;HTU21D;52833;45.112;39.556;2022-08-04T08:43:14;36.44;44.22
66053;HTU21D;52833;45.112;39.556;2022-08-04T08:49:14;36.38;44.74
66053;HTU21D;52833;45.112;39.556;2022-08-04T11:13:59;38.58;40.61
66053;HTU21D;52833;45.112;39.556;2022-08-04T11:16:53;38.59;40.64
66053;HTU21D;52833;45.112;39.556;2022-08-04T11:19:39;38.59;41.07
66053;HTU21D;52833;45.112;39.556;2022-08-04T11:22:10;38.63;40.86
66053;HTU21D;52833;45.112;39.556;2022-08-04T11:24:49;38.65;40.52
66053;HTU21D;52833;45.112;39.556;2022-08-04T11:27:39;38.62;40.67
66053;HTU21D;52833;45.112;39.556;2022-08-04T11:30:11;38.51;40.87
66053;HTU21D;52833;45.112;39.556;2022-08-04T11:33:00;38.36;40.65
66053;HTU21D;52833;45.112;39.556;2022-08-04T11:35:46;38.23;40.82
66053;HTU21D;52833;45.112;39.556;2022-08-04T11:41:41;38.07;40.93
66053;HTU21D;52833;45.112;39.556;2022-08-04T11:44:21;38.01;40.87
66053;HTU21D;52833;45.112;39.556;2022-08-04T11:46:53;37.96;40.63
66053;HTU21D;52833;45.112;39.556;2022-08-04T11:49:40;37.89;40.57
66053;HTU21D;52833;45.112;39.556;2022-08-04T11:52:12;37.82;40.78
66053;HTU21D;52833;45.112;39.556;2022-08-04T11:54:40;37.73;41.16
66053;HTU21D;52833;45.112;39.556;2022-08-04T11:57:08;37.57;41.50
66053;HTU21D;52833;45.112;39.556;2022-08-04T11:59:37;37.43;41.70
66053;HTU21D;52833;45.112;39.556;2022-08-04T12:05:10;37.08;42.49
66053;HTU21D;52833;45.112;39.556;2022-08-04T12:07:59;36.97;42.77
66053;HTU21D;52833;45.112;39.556;2022-08-04T12:11:32;36.86;43.08
66053;HTU21D;52833;45.112;39.556;2022-08-04T12:14:03;36.76;43.64
66053;HTU21D;52833;45.112;39.556;2022-08-04T12:17:01;36.72;43.77
66053;HTU21D;52833;45.112;39.556;2022-08-04T12:19:59;36.60;43.93
66053;HTU21D;52833;45.112;39.556;2022-08-04T12:22:28;36.54;44.16
66053;HTU21D;52833;45.112;39.556;2022-08-04T12:25:04;36.47;44.09
66053;HTU21D;52833;45.112;39.556;2022-08-04T12:27:36;36.42;44.30
66053;HTU21D;52833;45.112;39.556;2022-08-04T12:30:09;36.38;44.48
66053;HTU21D;52833;45.112;39.556;2022-08-04T12:35:52;36.22;44.95
66053;HTU21D;52833;45.112;39.556;2022-08-04T12:38:27;36.15;45.05
66053;HTU21D;52833;45.112;39.556;2022-08-04T12:40:59;36.08;45.35
66053;HTU21D;52833;45.112;39.556;2022-08-04T12:43:37;36.04;45.45
66053;HTU21D;52833;45.112;39.556;2022-08-04T12:46:07;36.06;45.51
66053;HTU21D;52833;45.112;39.556;2022-08-04T12:48:37;36.01;45.67
66053;HTU21D;52833;45.112;39.556;2022-08-04T12:51:07;35.99;45.65
66053;HTU21D;52833;45.112;39.556;2022-08-04T12:53:40;35.98;45.69
66053;HTU21D;52833;45.112;39.556;2022-08-04T12:56:10;35.99;45.74
66053;HTU21D;52833;45.112;39.556;2022-08-04T12:58:44;36.01;45.65
66053;HTU21D;52833;45.112;39.556;2022-08-04T13:01:18;36.01;45.76
66053;HTU21D;52833;45.112;39.556;2022-08-04T13:04:00;36.04;45.72
66053;HTU21D;52833;45.112;39.556;2022-08-04T13:06:33;36.04;45.81
66053;HTU21D;52833;45.112;39.556;2022-08-04T13:09:14;36.08;45.84
66053;HTU21D;52833;45.112;39.556;2022-08-04T13:12:11;36.07;45.71
66053;HTU21D;52833;45.112;39.556;2022-08-04T13:14:40;36.03;45.76
66053;HTU21D;52833;45.112;39.556;2022-08-04T13:17:11;35.96;45.83
66053;HTU21D;52833;45.112;39.556;2022-08-04T13:19:39;35.96;45.99
66053;HTU21D;52833;45.112;39.556;2022-08-04T13:22:11;35.93;46.00
66053;HTU21D;52833;45.112;39.556;2022-08-04T13:24:42;35.87;46.07
66053;HTU21D;52833;45.112;39.556;2022-08-04T13:27:09;35.85;46.19
66053;HTU21D;52833;45.112;39.556;2022-08-04T13:29:42;35.83;46.31
66053;HTU21D;52833;45.112;39.556;2022-08-04T13:32:10;35.78;46.38
66053;HTU21D;52833;45.112;39.556;2022-08-04T13:34:41;35.69;46.42
66053;HTU21D;52833;45.112;39.556;2022-08-04T13:37:09;35.60;46.63
66053;HTU21D;52833;45.112;39.556;2022-08-04T13:39:37;35.54;46.69
66053;HTU21D;52833;45.112;39.556;2022-08-04T13:42:12;35.48;46.83
66053;HTU21D;52833;45.112;39.556;2022-08-04T13:44:44;35.41;46.83
66053;HTU21D;52833;45.112;39.556;2022-08-04T13:47:15;35.33;46.95
66053;HTU21D;52833;45.112;39.556;2022-08-04T13:50:23;35.24;47.25
66053;HTU21D;52833;45.112;39.556;2022-08-04T13:52:57;35.14;47.40
66053;HTU21D;52833;45.112;39.556;2022-08-04T13:55:35;35.10;47.41
66053;HTU21D;52833;45.112;39.556;2022-08-04T13:58:10;35.06;47.12
66053;HTU21D;52833;45.112;39.556;2022-08-04T14:00:47;34.98;47.48
66053;HTU21D;52833;45.112;39.556;2022-08-04T14:03:35;34.95;47.67
66053;HTU21D;52833;45.112;39.556;2022-08-04T14:09:23;34.88;47.67
66053;HTU21D;52833;45.112;39.556;2022-08-04T14:11:55;34.84;47.74
66053;HTU21D;52833;45.112;39.556;2022-08-04T14:14:31;34.83;47.89
66053;HTU21D;52833;45.112;39.556;2022-08-04T14:17:09;34.80;47.79
66053;HTU21D;52833;45.112;39.556;2022-08-04T14:19:56;34.76;47.69
66053;HTU21D;52833;45.112;39.556;2022-08-04T14:25:02;34.65;47.70
66053;HTU21D;52833;45.112;39.556;2022-08-04T14:27:55;34.56;47.76
66053;HTU21D;52833;45.112;39.556;2022-08-04T14:30:28;34.49;47.66
66053;HTU21D;52833;45.112;39.556;2022-08-04T14:35:27;34.24;47.60
66053;HTU21D;52833;45.112;39.556;2022-08-04T14:37:57;34.10;47.68
66053;HTU21D;52833;45.112;39.556;2022-08-04T14:40:33;34.00;47.77
66053;HTU21D;52833;45.112;39.556;2022-08-04T14:43:00;33.93;47.99
66053;HTU21D;52833;45.112;39.556;2022-08-04T14:47:57;33.78;48.38
66053;HTU21D;52833;45.112;39.556;2022-08-04T14:50:44;33.72;48.20
66053;HTU21D;52833;45.112;39.556;2022-08-04T14:53:19;33.62;47.84
66053;HTU21D;52833;45.112;39.556;2022-08-04T14:55:52;33.53;48.01
66053;HTU21D;52833;45.112;39.556;2022-08-04T14:58:25;33.47;48.15
66053;HTU21D;52833;45.112;39.556;2022-08-04T15:00:56;33.41;48.31
66053;HTU21D;52833;45.112;39.556;2022-08-04T15:03:23;33.35;48.46
66053;HTU21D;52833;45.112;39.556;2022-08-04T15:05:51;33.31;48.60
66053;HTU21D;52833;45.112;39.556;2022-08-04T15:08:18;33.25;48.60
66053;HTU21D;52833;45.112;39.556;2022-08-04T15:10:45;33.19;48.54
66053;HTU21D;52833;45.112;39.556;2022-08-04T15:13:11;33.13;48.66
66053;HTU21D;52833;45.112;39.556;2022-08-04T15:15:41;33.06;48.93
66053;HTU21D;52833;45.112;39.556;2022-08-04T15:18:11;32.99;49.16
66053;HTU21D;52833;45.112;39.556;2022-08-04T15:20:39;32.90;49.26
66053;HTU21D;52833;45.112;39.556;2022-08-04T15:23:07;32.84;49.32
66053;HTU21D;52833;45.112;39.556;2022-08-04T15:25:40;32.76;49.54
66053;HTU21D;52833;45.112;39.556;2022-08-04T15:28:12;32.69;49.59
66053;HTU21D;52833;45.112;39.556;2022-08-04T15:30:41;32.60;49.30
66053;HTU21D;52833;45.112;39.556;2022-08-04T15:33:10;32.52;49.27
66053;HTU21D;52833;45.112;39.556;2022-08-04T15:35:38;32.41;49.28
66053;HTU21D;52833;45.112;39.556;2022-08-04T15:38:49;32.31;49.37
66053;HTU21D;52833;45.112;39.556;2022-08-04T15:41:08;32.19;49.47
66053;HTU21D;52833;45.112;39.556;2022-08-04T15:43:47;32.10;49.63
66053;HTU21D;52833;45.112;39.556;2022-08-04T15:47:11;31.98;49.89
66053;HTU21D;52833;45.112;39.556;2022-08-04T15:49:23;31.87;50.11
66053;HTU21D;52833;45.112;39.556;2022-08-04T15:52:01;31.78;50.56
66053;HTU21D;52833;45.112;39.556;2022-08-04T15:54:28;31.68;50.82
66053;HTU21D;52833;45.112;39.556;2022-08-04T15:56:55;31.59;51.18
66053;HTU21D;52833;45.112;39.556;2022-08-04T16:07:56;31.13;52.11
66053;HTU21D;52833;45.112;39.556;2022-08-04T16:12:58;30.92;52.75
66053;HTU21D;52833;45.112;39.556;2022-08-04T16:15:54;30.81;53.16
66053;HTU21D;52833;45.112;39.556;2022-08-04T16:20:58;30.61;53.77
66053;HTU21D;52833;45.112;39.556;2022-08-04T16:34:36;30.01;55.66
66053;HTU21D;52833;45.112;39.556;2022-08-04T16:37:05;29.89;55.99
66053;HTU21D;52833;45.112;39.556;2022-08-04T16:39:33;29.79;56.27
66053;HTU21D;52833;45.112;39.556;2022-08-04T16:50:14;29.27;56.84
66053;HTU21D;52833;45.112;39.556;2022-08-04T16:52:46;29.14;57.32
66053;HTU21D;52833;45.112;39.556;2022-08-04T16:55:17;29.03;57.80
66053;HTU21D;52833;45.112;39.556;2022-08-04T16:57:49;28.92;58.37
66053;HTU21D;52833;45.112;39.556;2022-08-04T17:00:17;28.83;58.66
66053;HTU21D;52833;45.112;39.556;2022-08-04T17:02:45;28.73;59.08
66053;HTU21D;52833;45.112;39.556;2022-08-04T17:05:21;28.63;59.54
66053;HTU21D;52833;45.112;39.556;2022-08-04T17:07:53;28.54;59.77
66053;HTU21D;52833;45.112;39.556;2022-08-04T17:10:41;28.42;60.12
66053;HTU21D;52833;45.112;39.556;2022-08-04T17:13:25;28.31;60.47
66053;HTU21D;52833;45.112;39.556;2022-08-04T17:15:56;28.23;60.64
66053;HTU21D;52833;45.112;39.556;2022-08-04T17:18:27;28.15;60.91
66053;HTU21D;52833;45.112;39.556;2022-08-04T17:20:58;28.05;61.10
66053;HTU21D;52833;45.112;39.556;2022-08-04T17:23:35;27.98;61.47
66053;HTU21D;52833;45.112;39.556;2022-08-04T17:26:12;27.89;61.79
66053;HTU21D;52833;45.112;39.556;2022-08-04T17:28:41;27.83;62.10
66053;HTU21D;52833;45.112;39.556;2022-08-04T17:31:11;27.79;62.41
66053;HTU21D;52833;45.112;39.556;2022-08-04T17:33:43;27.74;63.00
66053;HTU21D;52833;45.112;39.556;2022-08-04T17:36:12;27.74;63.34
66053;HTU21D;52833;45.112;39.556;2022-08-04T17:38:46;27.72;63.67
66053;HTU21D;52833;45.112;39.556;2022-08-04T17:41:15;27.72;63.87
66053;HTU21D;52833;45.112;39.556;2022-08-04T17:43:54;27.70;64.12
66053;HTU21D;52833;45.112;39.556;2022-08-04T17:51:44;27.66;63.80
66053;HTU21D;52833;45.112;39.556;2022-08-04T17:54:19;27.64;63.89
66053;HTU21D;52833;45.112;39.556;2022-08-04T17:56:48;27.59;64.29
66053;HTU21D;52833;45.112;39.556;2022-08-04T17:59:27;27.57;64.60
66053;HTU21D;52833;45.112;39.556;2022-08-04T18:01:59;27.53;64.79
66053;HTU21D;52833;45.112;39.556;2022-08-04T18:07:15;27.42;65.10
66053;HTU21D;52833;45.112;39.556;2022-08-04T18:09:53;27.38;65.33
66053;HTU21D;52833;45.112;39.556;2022-08-04T18:14:54;27.27;65.53
66053;HTU21D;52833;45.112;39.556;2022-08-04T18:17:41;27.19;65.65
66053;HTU21D;52833;45.112;39.556;2022-08-04T18:20:14;27.14;65.73
66053;HTU21D;52833;45.112;39.556;2022-08-04T18:22:41;27.09;65.91
66053;HTU21D;52833;45.112;39.556;2022-08-04T18:25:10;27.02;66.04
66053;HTU21D;52833;45.112;39.556;2022-08-04T18:27:48;26.96;66.12
66053;HTU21D;52833;45.112;39.556;2022-08-04T18:30:16;26.93;66.21
66053;HTU21D;52833;45.112;39.556;2022-08-04T18:32:43;26.91;66.27
66053;HTU21D;52833;45.112;39.556;2022-08-04T18:35:10;26.89;66.36
66053;HTU21D;52833;45.112;39.556;2022-08-04T18:37:38;26.86;66.46
66053;HTU21D;52833;45.112;39.556;2022-08-04T18:40:08;26.83;66.54
66053;HTU21D;52833;45.112;39.556;2022-08-04T18:42:35;26.82;66.61
66053;HTU21D;52833;45.112;39.556;2022-08-04T18:45:03;26.80;66.75
66053;HTU21D;52833;45.112;39.556;2022-08-04T18:47:30;26.77;66.85
66053;HTU21D;52833;45.112;39.556;2022-08-04T18:49:58;26.76;67.02
66053;HTU21D;52833;45.112;39.556;2022-08-04T18:52:25;26.73;67.10
66053;HTU21D;52833;45.112;39.556;2022-08-04T18:54:52;26.72;67.17
66053;HTU21D;52833;45.112;39.556;2022-08-04T18:57:23;26.70;67.22
66053;HTU21D;52833;45.112;39.556;2022-08-04T18:59:50;26.68;67.18
66053;HTU21D;52833;45.112;39.556;2022-08-04T19:02:17;26.66;67.21
66053;HTU21D;52833;45.112;39.556;2022-08-04T19:04:44;26.65;67.30
66053;HTU21D;52833;45.112;39.556;2022-08-04T19:07:11;26.63;67.50
66053;HTU21D;52833;45.112;39.556;2022-08-04T19:09:44;26.62;67.66
66053;HTU21D;52833;45.112;39.556;2022-08-04T19:12:11;26.61;67.75
66053;HTU21D;52833;45.112;39.556;2022-08-04T19:14:38;26.60;67.84
66053;HTU21D;52833;45.112;39.556;2022-08-04T19:17:04;26.61;67.91
66053;HTU21D;52833;45.112;39.556;2022-08-04T19:19:31;26.60;67.97
66053;HTU21D;52833;45.112;39.556;2022-08-04T19:21:57;26.58;67.96
66053;HTU21D;52833;45.112;39.556;2022-08-04T19:24:26;26.56;67.96
66053;HTU21D;52833;45.112;39.556;2022-08-04T19:26:57;26.57;67.93
66053;HTU21D;52833;45.112;39.556;2022-08-04T19:29:23;26.56;67.95
66053;HTU21D;52833;45.112;39.556;2022-08-04T19:31:50;26.55;68.07
66053;HTU21D;52833;45.112;39.556;2022-08-04T19:34:16;26.54;68.19
66053;HTU21D;52833;45.112;39.556;2022-08-04T19:36:43;26.53;68.23
66053;HTU21D;52833;45.112;39.556;2022-08-04T19:39:10;26.49;68.28
66053;HTU21D;52833;45.112;39.556;2022-08-04T19:41:38;26.47;68.25
66053;HTU21D;52833;45.112;39.556;2022-08-04T19:44:05;26.43;68.26
66053;HTU21D;52833;45.112;39.556;2022-08-04T19:46:33;26.41;68.20
66053;HTU21D;52833;45.112;39.556;2022-08-04T19:49:01;26.39;68.14
66053;HTU21D;52833;45.112;39.556;2022-08-04T19:51:31;26.39;68.07
66053;HTU21D;52833;45.112;39.556;2022-08-04T19:54:05;26.38;67.98
66053;HTU21D;52833;45.112;39.556;2022-08-04T19:56:31;26.37;67.96
66053;HTU21D;52833;45.112;39.556;2022-08-04T19:58:58;26.38;67.97
66053;HTU21D;52833;45.112;39.556;2022-08-04T20:01:27;26.38;67.97
66053;HTU21D;52833;45.112;39.556;2022-08-04T20:03:53;26.37;67.94
66053;HTU21D;52833;45.112;39.556;2022-08-04T20:06:20;26.37;67.90
66053;HTU21D;52833;45.112;39.556;2022-08-04T20:08:46;26.37;67.94
66053;HTU21D;52833;45.112;39.556;2022-08-04T20:11:13;26.36;67.95
66053;HTU21D;52833;45.112;39.556;2022-08-04T20:13:39;26.33;67.86
66053;HTU21D;52833;45.112;39.556;2022-08-04T20:16:06;26.28;67.72
66053;HTU21D;52833;45.112;39.556;2022-08-04T20:18:33;26.23;67.59
66053;HTU21D;52833;45.112;39.556;2022-08-04T20:20:59;26.18;67.39
66053;HTU21D;52833;45.112;39.556;2022-08-04T20:23:26;26.10;67.34
66053;HTU21D;52833;45.112;39.556;2022-08-04T20:25:53;26.06;67.28
66053;HTU21D;52833;45.112;39.556;2022-08-04T20:28:19;25.97;67.27
66053;HTU21D;52833;45.112;39.556;2022-08-04T20:30:48;25.90;67.30
66053;HTU21D;52833;45.112;39.556;2022-08-04T20:33:15;25.81;67.36
66053;HTU21D;52833;45.112;39.556;2022-08-04T20:35:41;25.76;67.35
66053;HTU21D;52833;45.112;39.556;2022-08-04T20:38:08;25.68;67.36
66053;HTU21D;52833;45.112;39.556;2022-08-04T20:40:34;25.63;67.43
66053;HTU21D;52833;45.112;39.556;2022-08-04T20:43:01;25.56;67.55
66053;HTU21D;52833;45.112;39.556;2022-08-04T20:45:28;25.49;67.67
66053;HTU21D;52833;45.112;39.556;2022-08-04T20:47:54;25.44;67.82
66053;HTU21D;52833;45.112;39.556;2022-08-04T20:50:21;25.37;67.95
66053;HTU21D;52833;45.112;39.556;2022-08-04T20:52:49;25.31;68.09
66053;HTU21D;52833;45.112;39.556;2022-08-04T20:55:16;25.25;68.21
66053;HTU21D;52833;45.112;39.556;2022-08-04T20:57:42;25.20;68.36
66053;HTU21D;52833;45.112;39.556;2022-08-04T21:00:10;25.15;68.64
66053;HTU21D;52833;45.112;39.556;2022-08-04T21:02:37;25.10;68.77
66053;HTU21D;52833;45.112;39.556;2022-08-04T21:05:04;25.04;68.90
66053;HTU21D;52833;45.112;39.556;2022-08-04T21:07:31;25.00;69.07
66053;HTU21D;52833;45.112;39.556;2022-08-04T21:09:57;24.92;69.22
66053;HTU21D;52833;45.112;39.556;2022-08-04T21:12:24;24.88;69.33